sensor_id;sensor_type;location;lat;lon;timestamp;pressure;altitude;pressure_sealevel;temperature;humidity
66486;BME280;53303;47.476;8.084;2023-05-16T00:00:32;94975.50;;;21.34;47.46
66486;BME280;53303;47.476;8.084;2023-05-16T00:03:01;94972.03;;;21.28;47.58
66486;BME280;53303;47.476;8.084;2023-05-16T00:05:27;94971.53;;;21.29;47.69
66486;BME280;53303;47.476;8.084;2023-05-16T00:07:53;94972.22;;;21.36;47.69
66486;BME280;53303;47.476;8.084;2023-05-16T00:10:18;94970.69;;;21.35;47.41
66486;BME280;53303;47.476;8.084;2023-05-16T00:12:43;94969.97;;;21.34;47.42
66486;BME280;53303;47.476;8.084;2023-05-16T00:15:10;94959.91;;;21.31;47.53
66486;BME280;53303;47.476;8.084;2023-05-16T00:17:38;94965.88;;;21.35;47.51
66486;BME280;53303;47.476;8.084;2023-05-16T00:20:05;94964.94;;;21.33;47.39
66486;BME280;53303;47.476;8.084;2023-05-16T00:22:39;94965.16;;;21.35;47.36
66486;BME280;53303;47.476;8.084;2023-05-16T00:25:05;94964.19;;;21.32;47.39
66486;BME280;53303;47.476;8.084;2023-05-16T00:27:33;94965.16;;;21.35;47.33
66486;BME280;53303;47.476;8.084;2023-05-16T00:30:01;94947.84;;;21.28;47.33
66486;BME280;53303;47.476;8.084;2023-05-16T00:32:27;94957.56;;;21.35;47.28
66486;BME280;53303;47.476;8.084;2023-05-16T00:34:52;94958.84;;;21.34;47.50
66486;BME280;53303;47.476;8.084;2023-05-16T00:37:19;94956.59;;;21.33;47.58
66486;BME280;53303;47.476;8.084;2023-05-16T00:39:47;94954.03;;;21.35;47.36
66486;BME280;53303;47.476;8.084;2023-05-16T00:42:13;94958.09;;;21.34;47.36
66486;BME280;53303;47.476;8.084;2023-05-16T00:44:38;94951.78;;;21.33;47.48
66486;BME280;53303;47.476;8.084;2023-05-16T00:47:04;94955.31;;;21.34;47.55
66486;BME280;53303;47.476;8.084;2023-05-16T00:49:29;94951.56;;;21.31;47.36
66486;BME280;53303;47.476;8.084;2023-05-16T00:51:56;94952.53;;;21.34;47.64
66486;BME280;53303;47.476;8.084;2023-05-16T00:54:23;94945.59;;;21.27;47.44
66486;BME280;53303;47.476;8.084;2023-05-16T00:56:51;94938.09;;;21.22;47.42
66486;BME280;53303;47.476;8.084;2023-05-16T00:59:19;94949.53;;;21.32;47.66
66486;BME280;53303;47.476;8.084;2023-05-16T01:01:45;94948.81;;;21.31;47.57
66486;BME280;53303;47.476;8.084;2023-05-16T01:04:12;94957.34;;;21.33;47.59
66486;BME280;53303;47.476;8.084;2023-05-16T01:06:40;94941.53;;;21.28;47.43
66486;BME280;53303;47.476;8.084;2023-05-16T01:09:06;94955.31;;;21.34;47.54
66486;BME280;53303;47.476;8.084;2023-05-16T01:11:49;94950.63;;;21.28;47.33
66486;BME280;53303;47.476;8.084;2023-05-16T01:17:03;94951.06;;;21.33;47.49
66486;BME280;53303;47.476;8.084;2023-05-16T01:24:54;94951.06;;;21.33;47.50
66486;BME280;53303;47.476;8.084;2023-05-16T01:27:26;94951.06;;;21.33;47.67
66486;BME280;53303;47.476;8.084;2023-05-16T01:29:55;94941.31;;;21.26;47.62
66486;BME280;53303;47.476;8.084;2023-05-16T01:32:21;94949.03;;;21.33;47.78
66486;BME280;53303;47.476;8.084;2023-05-16T01:34:47;94951.06;;;21.33;47.56
66486;BME280;53303;47.476;8.084;2023-05-16T01:37:20;94930.28;;;21.20;47.66
66486;BME280;53303;47.476;8.084;2023-05-16T01:40:03;94954.88;;;21.29;47.62
66486;BME280;53303;47.476;8.084;2023-05-16T01:42:36;94947.06;;;21.28;47.65
66486;BME280;53303;47.476;8.084;2023-05-16T01:45:15;94954.34;;;21.31;47.62
66486;BME280;53303;47.476;8.084;2023-05-16T01:47:44;94950.31;;;21.32;47.78
66486;BME280;53303;47.476;8.084;2023-05-16T01:50:19;94948.59;;;21.29;47.49
66486;BME280;53303;47.476;8.084;2023-05-16T01:52:55;94951.56;;;21.31;47.54
66486;BME280;53303;47.476;8.084;2023-05-16T01:58:06;94957.13;;;21.31;47.49
66486;BME280;53303;47.476;8.084;2023-05-16T02:00:32;94944.53;;;21.30;47.66
66486;BME280;53303;47.476;8.084;2023-05-16T02:02:58;94936.28;;;21.24;47.35
66486;BME280;53303;47.476;8.084;2023-05-16T02:05:26;94952.31;;;21.32;47.65
66486;BME280;53303;47.476;8.084;2023-05-16T02:07:51;94948.28;;;21.33;47.61
66486;BME280;53303;47.476;8.084;2023-05-16T02:10:17;94930.72;;;21.24;47.65
66486;BME280;53303;47.476;8.084;2023-05-16T02:12:43;94940.47;;;21.31;47.54
66486;BME280;53303;47.476;8.084;2023-05-16T02:15:09;94938.00;;;21.27;47.63
66486;BME280;53303;47.476;8.084;2023-05-16T02:17:34;94935.22;;;21.27;47.96
66486;BME280;53303;47.476;8.084;2023-05-16T02:20:00;94927.00;;;21.22;47.72
66486;BME280;53303;47.476;8.084;2023-05-16T02:22:31;94927.66;;;21.28;47.48
66486;BME280;53303;47.476;8.084;2023-05-16T02:24:57;94934.50;;;21.27;47.44
66486;BME280;53303;47.476;8.084;2023-05-16T02:27:23;94941.75;;;21.30;47.64
66486;BME280;53303;47.476;8.084;2023-05-16T02:29:50;94927.97;;;21.24;47.51
66486;BME280;53303;47.476;8.084;2023-05-16T02:32:16;94939.75;;;21.30;47.54
66486;BME280;53303;47.476;8.084;2023-05-16T02:34:43;94935.44;;;21.29;47.54
66486;BME280;53303;47.476;8.084;2023-05-16T02:37:09;94939.97;;;21.33;47.50
66486;BME280;53303;47.476;8.084;2023-05-16T02:39:37;94934.94;;;21.31;47.57
66486;BME280;53303;47.476;8.084;2023-05-16T02:42:03;94930.66;;;21.30;47.56
66486;BME280;53303;47.476;8.084;2023-05-16T02:44:29;94921.56;;;21.29;47.60
66486;BME280;53303;47.476;8.084;2023-05-16T02:46:54;94936.19;;;21.30;47.43
66486;BME280;53303;47.476;8.084;2023-05-16T02:49:19;94921.88;;;21.26;47.63
66486;BME280;53303;47.476;8.084;2023-05-16T02:51:47;94919.78;;;21.32;47.80
66486;BME280;53303;47.476;8.084;2023-05-16T02:54:13;94905.97;;;21.26;47.77
66486;BME280;53303;47.476;8.084;2023-05-16T02:56:39;94915.50;;;21.31;47.80
66486;BME280;53303;47.476;8.084;2023-05-16T02:59:04;94900.00;;;21.22;47.35
66486;BME280;53303;47.476;8.084;2023-05-16T03:01:33;94908.44;;;21.30;47.70
66486;BME280;53303;47.476;8.084;2023-05-16T03:04:00;94908.69;;;21.32;47.68
66486;BME280;53303;47.476;8.084;2023-05-16T03:06:26;94900.00;;;21.22;47.78
66486;BME280;53303;47.476;8.084;2023-05-16T03:08:51;94894.53;;;21.17;47.76
66486;BME280;53303;47.476;8.084;2023-05-16T03:11:17;94909.97;;;21.31;47.44
66486;BME280;53303;47.476;8.084;2023-05-16T03:13:47;94918.28;;;21.31;47.69
66486;BME280;53303;47.476;8.084;2023-05-16T03:16:13;94912.72;;;21.31;47.80
66486;BME280;53303;47.476;8.084;2023-05-16T03:18:39;94913.47;;;21.32;47.20
66486;BME280;53303;47.476;8.084;2023-05-16T03:21:05;94914.75;;;21.30;47.87
66486;BME280;53303;47.476;8.084;2023-05-16T03:23:30;94908.75;;;21.26;47.88
66486;BME280;53303;47.476;8.084;2023-05-16T03:25:56;94914.00;;;21.30;47.56
66486;BME280;53303;47.476;8.084;2023-05-16T03:28:21;94913.47;;;21.32;47.72
66486;BME280;53303;47.476;8.084;2023-05-16T03:30:47;94914.75;;;21.30;47.73
66486;BME280;53303;47.476;8.084;2023-05-16T03:33:12;94909.22;;;21.30;47.58
66486;BME280;53303;47.476;8.084;2023-05-16T03:35:38;94918.81;;;21.29;47.76
66486;BME280;53303;47.476;8.084;2023-05-16T03:38:04;94898.50;;;21.21;47.55
66486;BME280;53303;47.476;8.084;2023-05-16T03:40:29;94897.44;;;21.24;47.61
66486;BME280;53303;47.476;8.084;2023-05-16T03:42:55;94909.97;;;21.31;47.81
66486;BME280;53303;47.476;8.084;2023-05-16T03:45:20;94907.69;;;21.29;47.71
66486;BME280;53303;47.476;8.084;2023-05-16T03:47:47;94905.66;;;21.30;47.58
66486;BME280;53303;47.476;8.084;2023-05-16T03:50:13;94915.50;;;21.31;47.51
66486;BME280;53303;47.476;8.084;2023-05-16T03:52:41;94907.19;;;21.31;47.72
66486;BME280;53303;47.476;8.084;2023-05-16T03:55:07;94914.00;;;21.30;47.79
66486;BME280;53303;47.476;8.084;2023-05-16T03:57:35;94917.53;;;21.30;47.29
66486;BME280;53303;47.476;8.084;2023-05-16T04:00:02;94918.59;;;21.27;47.26
66486;BME280;53303;47.476;8.084;2023-05-16T04:02:31;94912.50;;;21.29;47.24
66486;BME280;53303;47.476;8.084;2023-05-16T04:04:57;94918.50;;;21.33;47.75
66486;BME280;53303;47.476;8.084;2023-05-16T04:07:22;94907.06;;;21.23;47.29
66486;BME280;53303;47.476;8.084;2023-05-16T04:09:47;94921.06;;;21.31;47.35
66486;BME280;53303;47.476;8.084;2023-05-16T04:12:13;94922.00;;;21.34;47.41
66486;BME280;53303;47.476;8.084;2023-05-16T04:14:41;94901.03;;;21.19;46.86
66486;BME280;53303;47.476;8.084;2023-05-16T04:17:09;94932.38;;;21.33;47.17
66486;BME280;53303;47.476;8.084;2023-05-16T04:19:35;94925.88;;;21.30;47.17
66486;BME280;53303;47.476;8.084;2023-05-16T04:22:00;94921.78;;;21.32;47.17
66486;BME280;53303;47.476;8.084;2023-05-16T04:24:25;94923.81;;;21.31;47.38
66486;BME280;53303;47.476;8.084;2023-05-16T04:26:53;94919.53;;;21.30;47.24
66486;BME280;53303;47.476;8.084;2023-05-16T04:29:19;94935.66;;;21.32;47.40
66486;BME280;53303;47.476;8.084;2023-05-16T04:31:45;94930.13;;;21.32;47.18
66486;BME280;53303;47.476;8.084;2023-05-16T04:34:10;94943.25;;;21.31;47.23
66486;BME280;53303;47.476;8.084;2023-05-16T04:36:37;94936.97;;;21.30;47.53
66486;BME280;53303;47.476;8.084;2023-05-16T04:39:03;94930.44;;;21.28;47.43
66486;BME280;53303;47.476;8.084;2023-05-16T04:41:28;94917.56;;;21.11;47.38
66486;BME280;53303;47.476;8.084;2023-05-16T04:43:54;94935.97;;;21.28;47.43
66486;BME280;53303;47.476;8.084;2023-05-16T04:46:19;94942.50;;;21.30;47.44
66486;BME280;53303;47.476;8.084;2023-05-16T04:48:47;94926.91;;;21.27;47.43
66486;BME280;53303;47.476;8.084;2023-05-16T04:51:12;94924.97;;;21.22;47.34
66486;BME280;53303;47.476;8.084;2023-05-16T04:53:38;94928.63;;;21.30;47.55
66486;BME280;53303;47.476;8.084;2023-05-16T04:56:03;94933.97;;;21.28;47.33
66486;BME280;53303;47.476;8.084;2023-05-16T04:58:32;94941.75;;;21.30;47.69
66486;BME280;53303;47.476;8.084;2023-05-16T05:00:58;94941.00;;;21.29;47.53
66486;BME280;53303;47.476;8.084;2023-05-16T05:03:23;94945.81;;;21.29;47.50
66486;BME280;53303;47.476;8.084;2023-05-16T05:05:49;94941.75;;;21.30;47.49
66486;BME280;53303;47.476;8.084;2023-05-16T05:08:17;94943.03;;;21.29;47.67
66486;BME280;53303;47.476;8.084;2023-05-16T05:10:43;94949.31;;;21.29;47.69
66486;BME280;53303;47.476;8.084;2023-05-16T05:13:10;94956.16;;;21.28;47.20
66486;BME280;53303;47.476;8.084;2023-05-16T05:15:35;94949.84;;;21.28;47.84
66486;BME280;53303;47.476;8.084;2023-05-16T05:18:01;94928.88;;;21.14;47.66
66486;BME280;53303;47.476;8.084;2023-05-16T05:20:26;94952.09;;;21.29;47.53
66486;BME280;53303;47.476;8.084;2023-05-16T05:22:51;94937.09;;;21.19;47.62
66486;BME280;53303;47.476;8.084;2023-05-16T05:25:17;94946.63;;;21.24;47.63
66486;BME280;53303;47.476;8.084;2023-05-16T05:27:42;94947.16;;;21.22;47.83
66486;BME280;53303;47.476;8.084;2023-05-16T05:30:08;94939.66;;;21.17;47.52
66486;BME280;53303;47.476;8.084;2023-05-16T05:32:36;94954.13;;;21.29;47.66
66486;BME280;53303;47.476;8.084;2023-05-16T05:35:02;94943.13;;;21.23;47.79
66486;BME280;53303;47.476;8.084;2023-05-16T05:37:28;94954.88;;;21.29;47.73
66486;BME280;53303;47.476;8.084;2023-05-16T05:39:59;94932.13;;;21.18;47.60
66486;BME280;53303;47.476;8.084;2023-05-16T05:42:24;94944.38;;;21.22;47.43
66486;BME280;53303;47.476;8.084;2023-05-16T05:44:49;94954.88;;;21.29;47.79
66486;BME280;53303;47.476;8.084;2023-05-16T05:47:15;94948.47;;;21.21;47.74
66486;BME280;53303;47.476;8.084;2023-05-16T05:49:43;94943.66;;;21.22;47.75
66486;BME280;53303;47.476;8.084;2023-05-16T05:52:11;94946.63;;;21.24;47.55
66486;BME280;53303;47.476;8.084;2023-05-16T05:54:39;94944.16;;;21.20;47.72
66486;BME280;53303;47.476;8.084;2023-05-16T05:57:04;94944.59;;;21.24;47.44
66486;BME280;53303;47.476;8.084;2023-05-16T05:59:30;94958.69;;;21.26;47.77
66486;BME280;53303;47.476;8.084;2023-05-16T06:01:58;94921.16;;;21.06;47.69
66486;BME280;53303;47.476;8.084;2023-05-16T06:04:23;94966.50;;;21.28;47.67
66486;BME280;53303;47.476;8.084;2023-05-16T06:06:49;94962.97;;;21.27;47.78
66486;BME280;53303;47.476;8.084;2023-05-16T06:09:16;94961.72;;;21.28;47.86
66486;BME280;53303;47.476;8.084;2023-05-16T06:11:42;94948.22;;;21.19;47.85
66486;BME280;53303;47.476;8.084;2023-05-16T06:14:10;94954.66;;;21.27;47.82
66486;BME280;53303;47.476;8.084;2023-05-16T06:16:35;94963.19;;;21.29;48.03
66486;BME280;53303;47.476;8.084;2023-05-16T06:19:00;94966.50;;;21.28;47.65
66486;BME280;53303;47.476;8.084;2023-05-16T06:21:26;94970.03;;;21.28;47.69
66486;BME280;53303;47.476;8.084;2023-05-16T06:23:51;94967.28;;;21.28;47.68
66486;BME280;53303;47.476;8.084;2023-05-16T06:26:19;94968.31;;;21.25;47.71
66486;BME280;53303;47.476;8.084;2023-05-16T06:28:46;94976.34;;;21.29;47.87
66486;BME280;53303;47.476;8.084;2023-05-16T06:31:12;94975.59;;;21.28;47.74
66486;BME280;53303;47.476;8.084;2023-05-16T06:33:40;94961.03;;;21.22;47.75
66486;BME280;53303;47.476;8.084;2023-05-16T06:36:06;94973.56;;;21.29;47.61
66486;BME280;53303;47.476;8.084;2023-05-16T06:38:31;94939.00;;;21.11;47.87
66486;BME280;53303;47.476;8.084;2023-05-16T06:40:57;94943.03;;;21.10;47.88
66486;BME280;53303;47.476;8.084;2023-05-16T06:43:22;94971.53;;;21.29;47.68
66486;BME280;53303;47.476;8.084;2023-05-16T06:45:48;94944.78;;;21.13;47.66
66486;BME280;53303;47.476;8.084;2023-05-16T06:48:14;94971.31;;;21.27;47.93
66486;BME280;53303;47.476;8.084;2023-05-16T06:50:40;94963.50;;;21.26;47.85
66486;BME280;53303;47.476;8.084;2023-05-16T06:53:05;94965.22;;;21.29;47.84
66486;BME280;53303;47.476;8.084;2023-05-16T06:55:32;94968.00;;;21.29;47.86
66486;BME280;53303;47.476;8.084;2023-05-16T06:57:57;94973.34;;;21.27;47.79
66486;BME280;53303;47.476;8.084;2023-05-16T07:00:23;94964.81;;;21.25;47.69
66486;BME280;53303;47.476;8.084;2023-05-16T07:02:51;94959.31;;;21.19;47.76
66486;BME280;53303;47.476;8.084;2023-05-16T07:05:16;94955.56;;;21.17;47.76
66486;BME280;53303;47.476;8.084;2023-05-16T07:07:42;94960.06;;;21.20;47.81
66486;BME280;53303;47.476;8.084;2023-05-16T07:10:07;94970.34;;;21.25;47.96
66486;BME280;53303;47.476;8.084;2023-05-16T07:12:34;94972.81;;;21.28;47.83
66486;BME280;53303;47.476;8.084;2023-05-16T07:15:00;94962.09;;;21.19;47.82
66486;BME280;53303;47.476;8.084;2023-05-16T07:17:26;94976.84;;;21.27;47.78
66486;BME280;53303;47.476;8.084;2023-05-16T07:19:51;94978.38;;;21.28;47.74
66486;BME280;53303;47.476;8.084;2023-05-16T07:22:17;94975.59;;;21.28;47.94
66486;BME280;53303;47.476;8.084;2023-05-16T07:24:42;94981.88;;;21.29;47.89
66486;BME280;53303;47.476;8.084;2023-05-16T07:27:08;94980.38;;;21.28;47.95
66486;BME280;53303;47.476;8.084;2023-05-16T07:29:36;94983.44;;;21.24;47.78
66486;BME280;53303;47.476;8.084;2023-05-16T07:32:02;94983.16;;;21.28;47.82
66486;BME280;53303;47.476;8.084;2023-05-16T07:34:27;94981.88;;;21.29;47.69
66486;BME280;53303;47.476;8.084;2023-05-16T07:36:53;94981.16;;;21.28;47.77
66486;BME280;53303;47.476;8.084;2023-05-16T07:39:18;94983.75;;;21.21;47.93
66486;BME280;53303;47.476;8.084;2023-05-16T07:41:44;94994.78;;;21.26;47.74
66486;BME280;53303;47.476;8.084;2023-05-16T07:44:09;94999.06;;;21.27;47.82
66486;BME280;53303;47.476;8.084;2023-05-16T07:46:35;95001.84;;;21.27;47.91
66486;BME280;53303;47.476;8.084;2023-05-16T07:49:00;94996.28;;;21.27;47.77
66486;BME280;53303;47.476;8.084;2023-05-16T07:51:25;94993.50;;;21.27;47.95
66486;BME280;53303;47.476;8.084;2023-05-16T07:53:51;94994.03;;;21.26;47.89
66486;BME280;53303;47.476;8.084;2023-05-16T07:56:16;94994.78;;;21.26;47.97
66486;BME280;53303;47.476;8.084;2023-05-16T07:58:42;94999.81;;;21.28;47.83
66486;BME280;53303;47.476;8.084;2023-05-16T08:01:08;95000.31;;;21.26;47.94
66486;BME280;53303;47.476;8.084;2023-05-16T08:03:33;94988.56;;;21.20;47.72
66486;BME280;53303;47.476;8.084;2023-05-16T08:05:59;94995.53;;;21.27;47.98
66486;BME280;53303;47.476;8.084;2023-05-16T08:08:24;94987.59;;;21.18;47.74
66486;BME280;53303;47.476;8.084;2023-05-16T08:10:53;95010.16;;;21.27;47.87
66486;BME280;53303;47.476;8.084;2023-05-16T08:13:19;95006.94;;;21.23;47.81
66486;BME280;53303;47.476;8.084;2023-05-16T08:15:46;95006.94;;;21.23;47.97
66486;BME280;53303;47.476;8.084;2023-05-16T08:18:13;95014.19;;;21.26;47.79
66486;BME280;53303;47.476;8.084;2023-05-16T08:20:39;95012.19;;;21.27;47.77
66486;BME280;53303;47.476;8.084;2023-05-16T08:23:06;95005.88;;;21.26;47.96
66486;BME280;53303;47.476;8.084;2023-05-16T08:25:32;95022.00;;;21.28;47.70
66486;BME280;53303;47.476;8.084;2023-05-16T08:27:57;95017.75;;;21.27;47.88
66486;BME280;53303;47.476;8.084;2023-05-16T08:30:26;95016.97;;;21.26;47.92
66486;BME280;53303;47.476;8.084;2023-05-16T08:32:51;95015.72;;;21.27;47.97
66486;BME280;53303;47.476;8.084;2023-05-16T08:35:17;95019.75;;;21.26;47.94
66486;BME280;53303;47.476;8.084;2023-05-16T08:37:42;95012.03;;;21.19;47.76
66486;BME280;53303;47.476;8.084;2023-05-16T08:40:09;95014.28;;;21.21;47.82
66486;BME280;53303;47.476;8.084;2023-05-16T08:42:38;95023.28;;;21.27;47.89
66486;BME280;53303;47.476;8.084;2023-05-16T08:45:07;95024.34;;;21.24;47.72
66486;BME280;53303;47.476;8.084;2023-05-16T08:47:32;95017.06;;;21.21;47.75
66486;BME280;53303;47.476;8.084;2023-05-16T08:50:02;95024.09;;;21.22;47.73
66486;BME280;53303;47.476;8.084;2023-05-16T08:52:30;95029.59;;;21.27;47.75
66486;BME280;53303;47.476;8.084;2023-05-16T08:54:58;95026.59;;;21.25;47.91
66486;BME280;53303;47.476;8.084;2023-05-16T08:57:26;95032.13;;;21.25;47.75
66486;BME280;53303;47.476;8.084;2023-05-16T08:59:52;95031.63;;;21.27;47.95
66486;BME280;53303;47.476;8.084;2023-05-16T09:02:20;95028.06;;;21.26;47.90
66486;BME280;53303;47.476;8.084;2023-05-16T09:04:47;95025.28;;;21.26;47.89
66486;BME280;53303;47.476;8.084;2023-05-16T09:07:15;95035.13;;;21.27;47.64
66486;BME280;53303;47.476;8.084;2023-05-16T09:09:41;95024.56;;;21.26;47.73
66486;BME280;53303;47.476;8.084;2023-05-16T09:12:07;95034.38;;;21.27;47.96
66486;BME280;53303;47.476;8.084;2023-05-16T09:14:32;95016.09;;;21.18;47.87
66486;BME280;53303;47.476;8.084;2023-05-16T09:17:08;95023.38;;;21.21;48.04
66486;BME280;53303;47.476;8.084;2023-05-16T09:19:46;95035.22;;;21.22;47.96
66486;BME280;53303;47.476;8.084;2023-05-16T09:22:14;95034.16;;;21.25;47.80
66486;BME280;53303;47.476;8.084;2023-05-16T09:24:44;95031.38;;;21.25;47.76
66486;BME280;53303;47.476;8.084;2023-05-16T09:27:11;95033.19;;;21.22;47.98
66486;BME280;53303;47.476;8.084;2023-05-16T09:29:45;95028.38;;;21.23;47.72
66486;BME280;53303;47.476;8.084;2023-05-16T09:32:15;95025.38;;;21.21;48.00
66486;BME280;53303;47.476;8.084;2023-05-16T09:34:47;95033.41;;;21.24;48.03
66486;BME280;53303;47.476;8.084;2023-05-16T09:37:19;95034.81;;;21.12;48.28
66486;BME280;53303;47.476;8.084;2023-05-16T09:39:49;95022.97;;;21.11;48.03
66486;BME280;53303;47.476;8.084;2023-05-16T09:42:18;95028.91;;;21.21;48.07
66486;BME280;53303;47.476;8.084;2023-05-16T09:44:52;95030.41;;;21.22;47.88
66486;BME280;53303;47.476;8.084;2023-05-16T09:47:19;95029.13;;;21.23;48.08
66486;BME280;53303;47.476;8.084;2023-05-16T09:49:46;95028.63;;;21.25;47.89
66486;BME280;53303;47.476;8.084;2023-05-16T09:52:15;95025.59;;;21.23;47.99
66486;BME280;53303;47.476;8.084;2023-05-16T09:54:41;95025.59;;;21.23;47.95
66486;BME280;53303;47.476;8.084;2023-05-16T09:57:09;95022.31;;;21.24;47.88
66486;BME280;53303;47.476;8.084;2023-05-16T09:59:36;95020.81;;;21.23;47.66
66486;BME280;53303;47.476;8.084;2023-05-16T10:02:05;95023.59;;;21.23;48.04
66486;BME280;53303;47.476;8.084;2023-05-16T10:04:35;95028.63;;;21.25;48.08
66486;BME280;53303;47.476;8.084;2023-05-16T10:07:04;95023.88;;;21.20;48.09
66486;BME280;53303;47.476;8.084;2023-05-16T10:09:34;95029.13;;;21.23;47.93
66486;BME280;53303;47.476;8.084;2023-05-16T10:12:01;95034.69;;;21.23;47.85
66486;BME280;53303;47.476;8.084;2023-05-16T10:14:34;94991.31;;;21.01;47.86
66486;BME280;53303;47.476;8.084;2023-05-16T10:17:03;95030.84;;;21.26;48.06
66486;BME280;53303;47.476;8.084;2023-05-16T10:19:40;95018.84;;;21.18;47.90
66486;BME280;53303;47.476;8.084;2023-05-16T10:22:12;95030.84;;;21.26;47.90
66486;BME280;53303;47.476;8.084;2023-05-16T10:27:36;95026.88;;;21.22;47.80
66486;BME280;53303;47.476;8.084;2023-05-16T10:30:05;95024.63;;;21.20;47.73
66486;BME280;53303;47.476;8.084;2023-05-16T10:32:31;95020.13;;;21.17;47.93
66486;BME280;53303;47.476;8.084;2023-05-16T10:34:57;95027.19;;;21.18;47.77
66486;BME280;53303;47.476;8.084;2023-05-16T10:37:30;95036.41;;;21.26;47.88
66486;BME280;53303;47.476;8.084;2023-05-16T10:39:58;95035.13;;;21.27;47.96
66486;BME280;53303;47.476;8.084;2023-05-16T10:42:24;95029.44;;;21.20;47.83
66486;BME280;53303;47.476;8.084;2023-05-16T10:44:53;95032.34;;;21.27;47.80
66486;BME280;53303;47.476;8.084;2023-05-16T10:47:20;95030.63;;;21.24;47.88
66486;BME280;53303;47.476;8.084;2023-05-16T10:49:46;95000.88;;;21.06;47.62
66486;BME280;53303;47.476;8.084;2023-05-16T10:52:14;95030.31;;;21.28;47.83
66486;BME280;53303;47.476;8.084;2023-05-16T10:54:43;95035.13;;;21.27;47.90
66486;BME280;53303;47.476;8.084;2023-05-16T10:57:22;95033.63;;;21.26;47.76
66486;BME280;53303;47.476;8.084;2023-05-16T10:59:49;95043.44;;;21.27;47.83
66486;BME280;53303;47.476;8.084;2023-05-16T11:02:26;95032.72;;;21.18;47.87
66486;BME280;53303;47.476;8.084;2023-05-16T11:04:54;95037.69;;;21.25;47.75
66486;BME280;53303;47.476;8.084;2023-05-16T11:07:24;95047.75;;;21.28;47.83
66486;BME280;53303;47.476;8.084;2023-05-16T11:12:41;95040.69;;;21.27;47.76
66486;BME280;53303;47.476;8.084;2023-05-16T11:15:19;95044.72;;;21.26;47.74
66486;BME280;53303;47.476;8.084;2023-05-16T11:17:45;95035.94;;;21.22;47.77
66486;BME280;53303;47.476;8.084;2023-05-16T11:20:33;95039.16;;;21.26;47.70
66486;BME280;53303;47.476;8.084;2023-05-16T11:25:48;95039.41;;;21.28;47.84
66486;BME280;53303;47.476;8.084;2023-05-16T11:28:16;95044.19;;;21.28;47.64
66486;BME280;53303;47.476;8.084;2023-05-16T11:30:43;95039.41;;;21.28;47.79
66486;BME280;53303;47.476;8.084;2023-05-16T11:33:10;95042.19;;;21.28;47.95
66486;BME280;53303;47.476;8.084;2023-05-16T11:35:36;95040.91;;;21.29;47.67
66486;BME280;53303;47.476;8.084;2023-05-16T11:38:03;95044.97;;;21.28;47.90
66486;BME280;53303;47.476;8.084;2023-05-16T11:40:28;95037.38;;;21.29;47.77
66486;BME280;53303;47.476;8.084;2023-05-16T11:42:59;95042.94;;;21.29;47.95
66486;BME280;53303;47.476;8.084;2023-05-16T11:45:28;95052.00;;;21.29;48.01
66486;BME280;53303;47.476;8.084;2023-05-16T11:47:53;95047.28;;;21.24;47.78
66486;BME280;53303;47.476;8.084;2023-05-16T11:50:21;95038.66;;;21.28;47.65
66486;BME280;53303;47.476;8.084;2023-05-16T11:52:51;95046.22;;;21.27;47.89
66486;BME280;53303;47.476;8.084;2023-05-16T11:55:19;95046.44;;;21.29;47.87
66486;BME280;53303;47.476;8.084;2023-05-16T11:57:45;95052.00;;;21.29;47.83
66486;BME280;53303;47.476;8.084;2023-05-16T12:00:14;95050.53;;;21.28;47.61
66486;BME280;53303;47.476;8.084;2023-05-16T12:02:42;95045.78;;;21.23;47.79
66486;BME280;53303;47.476;8.084;2023-05-16T12:05:08;95061.63;;;21.28;47.67
66486;BME280;53303;47.476;8.084;2023-05-16T12:07:37;95058.06;;;21.28;47.90
66486;BME280;53303;47.476;8.084;2023-05-16T12:10:14;95059.66;;;21.23;47.67
66486;BME280;53303;47.476;8.084;2023-05-16T12:12:43;95062.88;;;21.27;47.70
66486;BME280;53303;47.476;8.084;2023-05-16T12:15:12;95065.66;;;21.27;47.78
66486;BME280;53303;47.476;8.084;2023-05-16T12:17:41;95069.94;;;21.28;47.76
66486;BME280;53303;47.476;8.084;2023-05-16T12:20:08;95065.00;;;21.21;47.61
66486;BME280;53303;47.476;8.084;2023-05-16T12:22:45;95075.25;;;21.26;47.66
66486;BME280;53303;47.476;8.084;2023-05-16T12:27:48;95064.22;;;21.21;47.86
66486;BME280;53303;47.476;8.084;2023-05-16T12:30:16;95063.41;;;21.26;47.77
66486;BME280;53303;47.476;8.084;2023-05-16T12:32:42;95069.69;;;21.26;47.69
66486;BME280;53303;47.476;8.084;2023-05-16T12:35:09;95063.25;;;21.18;47.89
66486;BME280;53303;47.476;8.084;2023-05-16T12:37:36;95073.25;;;21.27;47.74
66486;BME280;53303;47.476;8.084;2023-05-16T12:40:04;95076.00;;;21.27;47.92
66486;BME280;53303;47.476;8.084;2023-05-16T12:42:30;95068.81;;;21.18;47.74
66486;BME280;53303;47.476;8.084;2023-05-16T12:44:55;95078.00;;;21.26;47.95
66486;BME280;53303;47.476;8.084;2023-05-16T12:47:34;95065.88;;;21.10;47.86
66486;BME280;53303;47.476;8.084;2023-05-16T12:50:00;95079.31;;;21.25;47.85
66486;BME280;53303;47.476;8.084;2023-05-16T12:52:27;95060.78;;;21.15;48.03
66486;BME280;53303;47.476;8.084;2023-05-16T12:54:53;95080.03;;;21.26;48.01
66486;BME280;53303;47.476;8.084;2023-05-16T12:57:21;95082.09;;;21.25;47.65
66486;BME280;53303;47.476;8.084;2023-05-16T12:59:46;95080.78;;;21.26;47.98
66486;BME280;53303;47.476;8.084;2023-05-16T13:02:11;95076.31;;;21.23;48.08
66486;BME280;53303;47.476;8.084;2023-05-16T13:04:37;95073.84;;;21.20;47.91
66486;BME280;53303;47.476;8.084;2023-05-16T13:07:02;95082.81;;;21.26;47.77
66486;BME280;53303;47.476;8.084;2023-05-16T13:09:28;95093.91;;;21.26;48.14
66486;BME280;53303;47.476;8.084;2023-05-16T13:11:54;95079.91;;;21.18;48.09
66486;BME280;53303;47.476;8.084;2023-05-16T13:14:20;95086.88;;;21.25;48.01
66486;BME280;53303;47.476;8.084;2023-05-16T13:16:45;95093.69;;;21.24;48.04
66486;BME280;53303;47.476;8.084;2023-05-16T13:19:14;95095.97;;;21.25;47.94
66486;BME280;53303;47.476;8.084;2023-05-16T13:21:39;95099.78;;;21.22;48.11